This is the latest recevied weather packets stored in our database for station/object EA7RX-3. If no packets are shown the sender has not sent any weather packets the latest 10 day(s).
| Time | Temp. | Humidity | Pressure | Rain* | Wind** | Luminosity | Snow |
|---|---|---|---|---|---|---|---|
| 1777579700 | 18.33° C | 81% | 1015 hPa | - | - | - | - |
| 1777579101 | 18.33° C | 79% | 1014.8 hPa | - | - | - | - |
| 1777578500 | 18.89° C | 76% | 1014.8 hPa | - | - | - | - |
| 1777577900 | 18.33° C | 76% | 1014.7 hPa | - | - | - | - |
| 1777577300 | 18.89° C | 75% | 1014.6 hPa | - | - | - | - |
| 1777576700 | 18.89° C | 76% | 1014.5 hPa | - | - | - | - |
| 1777576100 | 18.89° C | 76% | 1014.4 hPa | - | - | - | - |
| 1777575500 | 18.89° C | 76% | 1014.4 hPa | - | - | - | - |
| 1777574900 | 18.89° C | 73% | 1014.4 hPa | - | - | - | - |
| 1777574300 | 19.44° C | 71% | 1014.2 hPa | - | - | - | - |
| 1777573700 | 19.44° C | 69% | 1014 hPa | - | - | - | - |
| 1777573100 | 19.44° C | 67% | 1014 hPa | - | - | - | - |
| 1777572500 | 20° C | 66% | 1013.9 hPa | - | - | - | - |
| 1777571900 | 20° C | 64% | 1013.9 hPa | - | - | - | - |
| 1777571300 | 20° C | 63% | 1013.8 hPa | - | - | - | - |
| 1777570700 | 20.56° C | 61% | 1013.9 hPa | - | - | - | - |
| 1777570100 | 20.56° C | 62% | 1013.8 hPa | - | - | - | - |
| 1777569500 | 21.11° C | 59% | 1013.7 hPa | - | - | - | - |
| 1777568900 | 20.56° C | 61% | 1013.8 hPa | - | - | - | - |
| 1777568300 | 21.11° C | 62% | 1013.7 hPa | - | - | - | - |
| 1777567700 | 21.11° C | 62% | 1013.7 hPa | - | - | - | - |
| 1777567101 | 21.11° C | 62% | 1013.7 hPa | - | - | - | - |
| 1777566502 | 22.22° C | 60% | 1013.3 hPa | - | - | - | - |
| 1777565900 | 22.22° C | 60% | 1013.1 hPa | - | - | - | - |
| 1777565301 | 22.78° C | 57% | 1013.1 hPa | - | - | - | - |
* Rain since midnight (hover to see other rain measurements)
** Current wind speed in m/s (hover to see current wind gust speed)